Time;durP1;ratioP1;P1;durP2;ratioP2;P2;SDS_P1;SDS_P2;PMS_P1;PMS_P2;Temp;Humidity;BMP_temperature;BMP_pressure;BME280_temperature;BME280_humidity;BME280_pressure;Samples;Min_cycle;Max_cycle;Signal;HPM_P1;HPM_P2
2021/11/10 00:01:58;;;;;;;5.27;1.93;;;10.80;99.90;;;;;;5109594;28;20478;-71
2021/11/10 00:04:31;;;;;;;4.00;1.70;;;10.70;99.90;;;;;;5101434;28;20500;-71
2021/11/10 00:07:02;;;;;;;4.43;2.00;;;10.50;99.90;;;;;;5105227;28;20962;-71
2021/11/10 00:09:36;;;;;;;6.90;2.70;;;10.40;99.90;;;;;;5098099;28;20454;-71
2021/11/10 00:12:08;;;;;;;3.10;1.90;;;10.30;99.90;;;;;;5106512;28;20898;-70
2021/11/10 00:14:39;;;;;;;2.60;1.45;;;10.40;99.90;;;;;;5099668;28;20858;-70
2021/11/10 00:17:10;;;;;;;4.17;2.30;;;10.30;99.90;;;;;;5096061;28;20220;-70
2021/11/10 00:19:42;;;;;;;5.93;2.17;;;10.30;99.90;;;;;;5100747;28;20449;-72
2021/11/10 00:22:13;;;;;;;3.10;1.90;;;10.20;99.90;;;;;;5101502;28;20478;-70
2021/11/10 00:24:44;;;;;;;4.10;2.30;;;10.10;99.90;;;;;;5102080;28;20468;-70
2021/11/10 00:27:15;;;;;;;2.70;1.50;;;10.10;99.90;;;;;;5098842;28;20454;-71
2021/11/10 00:29:45;;;;;;;2.30;1.67;;;10.10;99.90;;;;;;5099428;28;20453;-71
2021/11/10 00:32:16;;;;;;;4.33;2.20;;;10.10;99.90;;;;;;5094585;28;20517;-73
2021/11/10 00:34:49;;;;;;;3.63;2.33;;;10.00;99.90;;;;;;5105503;28;20459;-73
2021/11/10 00:37:20;;;;;;;4.30;2.07;;;9.90;99.90;;;;;;5094451;28;20797;-73
2021/11/10 00:39:50;;;;;;;6.37;2.57;;;9.90;99.90;;;;;;5108494;28;20453;-71
2021/11/10 00:42:21;;;;;;;5.97;2.83;;;9.90;99.90;;;;;;5104042;28;20478;-72
2021/11/10 00:44:52;;;;;;;11.43;3.10;;;9.90;99.90;;;;;;5107358;28;20927;-71
2021/11/10 00:47:23;;;;;;;4.82;2.20;;;9.90;99.90;;;;;;5104113;28;20450;-71
2021/11/10 00:49:55;;;;;;;5.17;1.93;;;9.90;99.90;;;;;;5095421;28;20209;-71
2021/11/10 00:52:26;;;;;;;4.23;2.53;;;9.80;99.90;;;;;;5106789;28;20755;-70
2021/11/10 00:54:57;;;;;;;4.53;1.85;;;9.70;99.90;;;;;;5107147;28;20445;-71
2021/11/10 00:57:28;;;;;;;5.13;1.77;;;9.70;99.90;;;;;;5111800;28;20215;-71
2021/11/10 00:59:59;;;;;;;4.57;1.77;;;9.60;99.90;;;;;;5111741;28;20461;-75
2021/11/10 01:02:30;;;;;;;3.13;1.40;;;9.40;99.90;;;;;;5095732;28;20226;-73
2021/11/10 01:05:03;;;;;;;1.42;1.20;;;9.30;99.90;;;;;;5102588;28;20311;-74
2021/11/10 01:07:33;;;;;;;3.78;1.50;;;9.10;99.90;;;;;;5092672;28;20223;-70
2021/11/10 01:10:05;;;;;;;1.92;1.42;;;9.00;99.90;;;;;;5106910;28;20569;-71
2021/11/10 01:12:36;;;;;;;3.50;1.90;;;9.00;99.90;;;;;;5090809;28;20340;-71
2021/11/10 01:15:10;;;;;;;1.67;1.55;;;8.90;99.90;;;;;;5101825;28;20223;-71
2021/11/10 01:17:41;;;;;;;6.30;1.60;;;8.90;99.90;;;;;;5110286;28;20211;-72
2021/11/10 01:20:14;;;;;;;3.22;1.65;;;8.90;99.90;;;;;;5095323;28;20212;-71
2021/11/10 01:22:46;;;;;;;3.40;1.88;;;9.00;99.90;;;;;;5092755;28;20289;-71
2021/11/10 01:25:17;;;;;;;3.00;1.85;;;8.90;99.90;;;;;;5093776;28;20216;-70
2021/11/10 01:27:47;;;;;;;2.63;1.88;;;8.80;99.90;;;;;;5091278;28;20223;-70
2021/11/10 01:30:19;;;;;;;3.10;1.90;;;8.80;99.90;;;;;;5098594;28;20581;-71
2021/11/10 01:32:50;;;;;;;3.10;2.05;;;8.80;99.90;;;;;;5106568;28;20303;-75
2021/11/10 01:35:23;;;;;;;4.18;2.25;;;8.90;99.90;;;;;;5098121;28;20657;-71
2021/11/10 01:37:54;;;;;;;2.42;2.22;;;8.90;99.90;;;;;;5107653;28;20685;-70
2021/11/10 01:40:25;;;;;;;6.88;2.45;;;8.90;99.90;;;;;;5098694;28;20719;-70
2021/11/10 01:43:05;;;;;;;4.18;2.80;;;9.00;99.90;;;;;;5103567;28;20225;-70
2021/11/10 01:45:36;;;;;;;7.63;2.75;;;8.90;99.90;;;;;;5102879;28;20216;-71
2021/11/10 01:48:07;;;;;;;6.32;3.47;;;8.70;99.90;;;;;;5103737;28;20669;-71
2021/11/10 01:50:40;;;;;;;4.82;3.00;;;8.60;99.90;;;;;;5095362;28;20215;-73
2021/11/10 01:53:12;;;;;;;6.88;3.08;;;8.60;99.90;;;;;;5111955;28;20208;-71
2021/11/10 01:55:44;;;;;;;4.32;3.25;;;8.60;99.90;;;;;;5096647;28;20217;-70
2021/11/10 01:58:15;;;;;;;3.95;2.70;;;8.60;99.90;;;;;;5100403;28;20245;-71
2021/11/10 02:00:46;;;;;;;3.83;3.53;;;8.60;99.90;;;;;;5103588;28;20226;-74
2021/11/10 02:03:18;;;;;;;4.05;2.38;;;8.70;99.90;;;;;;5100876;28;20258;-78
2021/11/10 02:05:51;;;;;;;5.45;3.00;;;8.70;99.90;;;;;;5098058;28;20235;-70
2021/11/10 02:08:23;;;;;;;7.63;3.53;;;8.60;99.90;;;;;;5109071;28;20777;-72
2021/11/10 02:10:54;;;;;;;9.30;5.20;;;8.50;99.90;;;;;;5106253;28;20209;-70
2021/11/10 02:13:28;;;;;;;4.22;3.45;;;8.40;99.90;;;;;;5103284;28;20571;-71
2021/11/10 02:16:00;;;;;;;8.48;3.03;;;8.30;99.90;;;;;;5107345;28;20223;-76
2021/11/10 02:18:31;;;;;;;4.57;3.30;;;8.20;99.90;;;;;;5098800;28;20249;-70
2021/11/10 02:21:09;;;;;;;6.20;2.47;;;8.20;99.90;;;;;;5101059;28;20223;-70
2021/11/10 02:23:40;;;;;;;3.65;2.95;;;8.30;99.90;;;;;;5103967;28;20314;-72
2021/11/10 02:26:15;;;;;;;6.90;3.10;;;8.30;99.90;;;;;;5097114;28;20235;-76
2021/11/10 02:28:46;;;;;;;6.45;3.92;;;8.30;99.90;;;;;;5096945;28;20203;-70
2021/11/10 02:31:17;;;;;;;6.72;3.65;;;8.40;99.90;;;;;;5098882;28;20220;-69
2021/11/10 02:33:48;;;;;;;5.05;2.63;;;8.50;99.90;;;;;;5088997;28;20212;-71
2021/11/10 02:36:21;;;;;;;4.32;3.20;;;8.50;99.90;;;;;;5099755;28;20227;-72
2021/11/10 02:38:52;;;;;;;6.80;3.47;;;8.50;99.90;;;;;;5105346;28;20230;-71
2021/11/10 02:41:23;;;;;;;5.97;2.90;;;8.50;99.90;;;;;;5113405;28;20216;-71
2021/11/10 02:43:54;;;;;;;3.45;2.63;;;8.50;99.90;;;;;;5111196;28;20215;-71
2021/11/10 02:46:25;;;;;;;4.32;3.47;;;8.50;99.90;;;;;;5099871;28;20212;-72
2021/11/10 02:48:56;;;;;;;6.40;3.22;;;8.40;99.90;;;;;;5102084;28;20223;-71
2021/11/10 02:51:28;;;;;;;4.30;3.55;;;8.40;99.90;;;;;;5088396;28;20270;-73
2021/11/10 02:53:59;;;;;;;7.93;4.00;;;8.40;99.90;;;;;;5106830;28;20216;-72
2021/11/10 02:56:30;;;;;;;5.63;3.90;;;8.40;99.90;;;;;;5089138;28;20204;-70
2021/11/10 02:59:00;;;;;;;6.55;4.80;;;8.40;99.90;;;;;;5090518;28;20674;-71
2021/11/10 03:01:31;;;;;;;6.28;3.55;;;8.40;99.90;;;;;;5101936;28;20583;-71
2021/11/10 03:04:03;;;;;;;10.82;4.35;;;8.40;99.90;;;;;;5109806;28;20326;-70
2021/11/10 03:06:35;;;;;;;6.63;4.90;;;8.30;99.90;;;;;;5098344;28;20717;-71
2021/11/10 03:09:06;;;;;;;11.18;5.13;;;8.30;99.90;;;;;;5101091;28;20230;-71
2021/11/10 03:11:37;;;;;;;6.75;4.50;;;8.30;99.90;;;;;;5088428;28;20216;-72
2021/11/10 03:14:07;;;;;;;4.43;3.53;;;8.30;99.90;;;;;;5099447;28;20215;-71
2021/11/10 03:16:38;;;;;;;9.48;4.15;;;8.20;99.90;;;;;;5108524;28;20212;-71
2021/11/10 03:19:09;;;;;;;4.85;2.78;;;8.20;99.90;;;;;;5098924;28;20652;-71
2021/11/10 03:21:42;;;;;;;5.28;2.70;;;8.20;99.90;;;;;;5089305;28;20223;-70
2021/11/10 03:24:12;;;;;;;7.97;2.70;;;8.30;99.90;;;;;;5099812;28;20216;-71
2021/11/10 03:26:43;;;;;;;7.18;2.53;;;8.30;99.90;;;;;;5087352;28;20687;-71
2021/11/10 03:29:14;;;;;;;7.50;2.55;;;8.40;99.90;;;;;;5102429;28;20216;-71
2021/11/10 03:31:46;;;;;;;3.60;2.20;;;8.40;99.90;;;;;;5115429;28;20260;-69
2021/11/10 03:34:16;;;;;;;5.57;2.25;;;8.50;99.90;;;;;;5103855;28;20222;-70
2021/11/10 03:36:50;;;;;;;3.20;2.10;;;8.50;99.90;;;;;;5105001;28;20208;-70
2021/11/10 03:39:21;;;;;;;5.28;2.28;;;8.50;99.90;;;;;;5090026;28;20212;-71
2021/11/10 03:41:52;;;;;;;3.05;1.90;;;8.50;99.90;;;;;;5088585;28;20356;-71
2021/11/10 03:44:23;;;;;;;4.25;1.85;;;8.60;99.90;;;;;;5101272;28;20280;-72
2021/11/10 03:46:54;;;;;;;3.78;2.20;;;8.60;99.90;;;;;;5098488;28;20585;-70
2021/11/10 03:49:25;;;;;;;5.30;1.80;;;8.60;99.90;;;;;;5099378;28;20217;-70
2021/11/10 03:51:58;;;;;;;3.58;2.80;;;8.60;99.90;;;;;;5103501;28;20235;-70
2021/11/10 03:54:29;;;;;;;3.55;1.52;;;8.60;99.90;;;;;;5100175;28;20211;-71
2021/11/10 03:56:59;;;;;;;4.80;1.90;;;8.50;99.90;;;;;;5105005;28;20211;-72
2021/11/10 03:59:30;;;;;;;4.90;2.10;;;8.50;99.90;;;;;;5089791;28;20224;-78
2021/11/10 04:02:01;;;;;;;3.65;1.60;;;8.50;99.90;;;;;;5099263;28;20269;-71
2021/11/10 04:04:32;;;;;;;6.63;2.53;;;8.50;99.90;;;;;;5100765;28;20233;-69
2021/11/10 04:07:05;;;;;;;2.97;2.30;;;8.50;99.90;;;;;;5111907;28;20216;-69
2021/11/10 04:09:36;;;;;;;3.97;2.58;;;8.40;99.90;;;;;;5113890;28;20535;-69
2021/11/10 04:12:09;;;;;;;8.70;3.75;;;8.30;99.90;;;;;;5092378;28;20216;-70
2021/11/10 04:14:40;;;;;;;4.90;2.80;;;8.30;99.90;;;;;;5107283;28;20717;-69
2021/11/10 04:17:10;;;;;;;4.82;3.05;;;8.20;99.90;;;;;;5091971;28;20752;-70
2021/11/10 04:19:41;;;;;;;6.35;3.33;;;8.30;99.90;;;;;;5091353;28;20223;-70
2021/11/10 04:22:14;;;;;;;4.88;2.25;;;8.20;99.90;;;;;;5093967;28;20577;-70
2021/11/10 04:24:45;;;;;;;3.00;2.20;;;8.30;99.90;;;;;;5102122;28;20204;-70
2021/11/10 04:27:18;;;;;;;7.95;2.47;;;8.20;99.90;;;;;;5109006;28;20216;-70
2021/11/10 04:29:49;;;;;;;4.15;2.78;;;8.20;99.90;;;;;;5108770;28;20571;-70
2021/11/10 04:32:20;;;;;;;3.40;3.10;;;8.20;99.90;;;;;;5091735;28;20212;-70
2021/11/10 04:34:51;;;;;;;6.97;2.78;;;8.20;99.90;;;;;;5104882;28;20212;-71
2021/11/10 04:37:24;;;;;;;4.03;3.00;;;8.20;99.90;;;;;;5102375;28;20222;-70
2021/11/10 04:39:55;;;;;;;3.42;2.38;;;8.20;99.90;;;;;;5110060;28;20212;-70
2021/11/10 04:42:25;;;;;;;3.92;2.30;;;8.20;99.90;;;;;;5104573;28;20669;-69
2021/11/10 04:45:01;;;;;;;6.15;2.60;;;8.10;99.90;;;;;;5095720;28;20238;-70
2021/11/10 04:47:32;;;;;;;2.83;1.73;;;8.10;99.90;;;;;;5092371;28;20227;-70
2021/11/10 04:50:04;;;;;;;8.77;2.83;;;8.20;99.90;;;;;;5091516;28;20223;-69
2021/11/10 04:52:38;;;;;;;4.90;2.95;;;8.20;99.90;;;;;;5095418;28;20211;-70
2021/11/10 04:55:12;;;;;;;6.35;2.97;;;8.30;99.90;;;;;;5103979;28;20224;-70
2021/11/10 04:57:43;;;;;;;2.50;2.30;;;8.30;99.90;;;;;;5106973;28;20218;-69
2021/11/10 05:00:16;;;;;;;4.30;2.35;;;8.40;99.90;;;;;;5098955;28;20588;-69
2021/11/10 05:02:47;;;;;;;4.43;2.10;;;8.40;99.90;;;;;;5107979;28;20241;-69
2021/11/10 05:05:18;;;;;;;3.22;1.90;;;8.40;99.90;;;;;;5099972;28;20208;-69
2021/11/10 05:07:51;;;;;;;5.55;2.20;;;8.40;99.90;;;;;;5109297;28;20207;-69
2021/11/10 05:10:22;;;;;;;8.60;2.63;;;8.30;99.90;;;;;;5100997;28;20212;-69
2021/11/10 05:12:53;;;;;;;9.95;2.58;;;8.40;99.90;;;;;;5102941;28;20207;-68
2021/11/10 05:15:24;;;;;;;7.05;2.70;;;8.30;99.90;;;;;;5100729;28;20220;-69
2021/11/10 05:17:55;;;;;;;5.00;2.55;;;8.30;99.90;;;;;;5093849;28;20258;-70
2021/11/10 05:20:26;;;;;;;4.22;2.55;;;8.40;99.90;;;;;;5091700;28;20236;-69
2021/11/10 05:22:59;;;;;;;5.30;2.00;;;8.50;99.90;;;;;;5108154;28;20665;-69
2021/11/10 05:25:29;;;;;;;4.20;2.45;;;8.50;99.90;;;;;;5091585;28;20527;-69
2021/11/10 05:28:01;;;;;;;3.67;2.75;;;8.50;99.90;;;;;;5100627;28;20215;-69
2021/11/10 05:30:31;;;;;;;11.98;3.58;;;8.50;99.90;;;;;;5098713;28;20239;-70
2021/11/10 05:33:02;;;;;;;2.40;1.73;;;8.50;99.90;;;;;;5100069;28;20221;-70
2021/11/10 05:35:33;;;;;;;7.93;2.10;;;8.60;99.90;;;;;;5098314;28;20212;-69
2021/11/10 05:38:06;;;;;;;9.00;2.50;;;8.60;99.90;;;;;;5100422;28;20216;-70
2021/11/10 05:40:37;;;;;;;6.63;2.60;;;8.60;99.90;;;;;;5098003;28;20225;-70
2021/11/10 05:43:08;;;;;;;3.58;1.90;;;8.60;99.90;;;;;;5108544;28;20637;-70
2021/11/10 05:45:39;;;;;;;3.67;2.47;;;8.60;99.90;;;;;;5090409;28;20205;-69
2021/11/10 05:48:10;;;;;;;2.42;1.80;;;8.50;99.90;;;;;;5092205;28;20216;-70
2021/11/10 05:50:41;;;;;;;4.40;1.80;;;8.50;99.90;;;;;;5106619;28;20235;-69
2021/11/10 05:53:14;;;;;;;4.97;2.50;;;8.60;99.90;;;;;;5107912;28;20227;-70
2021/11/10 05:55:46;;;;;;;4.55;2.03;;;8.60;99.90;;;;;;5091204;28;20208;-71
2021/11/10 05:58:17;;;;;;;3.75;1.77;;;8.50;99.90;;;;;;5091562;28;20538;-69
2021/11/10 06:00:47;;;;;;;5.55;2.05;;;8.40;99.90;;;;;;5103786;28;20321;-69
2021/11/10 06:03:20;;;;;;;5.82;2.17;;;8.40;99.90;;;;;;5093086;28;20406;-69
2021/11/10 06:05:52;;;;;;;4.18;2.25;;;8.30;99.90;;;;;;5102789;28;20550;-69
2021/11/10 06:08:25;;;;;;;4.10;2.20;;;8.30;99.90;;;;;;5100062;28;20212;-69
2021/11/10 06:11:08;;;;;;;5.10;2.30;;;8.30;99.90;;;;;;5104235;28;20216;-70
2021/11/10 06:13:40;;;;;;;8.85;2.03;;;8.30;99.90;;;;;;5111542;28;20642;-72
2021/11/10 06:16:15;;;;;;;3.00;1.83;;;8.20;99.90;;;;;;5099228;28;20216;-71
2021/11/10 06:18:49;;;;;;;6.70;2.97;;;8.20;99.90;;;;;;5090549;28;20219;-71
2021/11/10 06:21:20;;;;;;;3.47;2.00;;;8.00;99.90;;;;;;5089757;28;20212;-71
2021/11/10 06:23:53;;;;;;;4.82;2.10;;;8.00;99.90;;;;;;5089981;28;20224;-70
2021/11/10 06:26:24;;;;;;;7.15;2.30;;;7.90;99.90;;;;;;5101095;28;20215;-69
2021/11/10 06:28:55;;;;;;;7.95;2.70;;;7.80;99.90;;;;;;5106499;28;20290;-69
2021/11/10 06:31:26;;;;;;;6.30;2.75;;;7.80;99.90;;;;;;5102655;28;20655;-70
2021/11/10 06:33:57;;;;;;;3.38;2.10;;;7.80;99.90;;;;;;5101554;28;20207;-69
2021/11/10 06:36:28;;;;;;;6.22;2.20;;;7.80;99.90;;;;;;5110994;28;20658;-70
2021/11/10 06:39:01;;;;;;;7.38;2.60;;;7.80;99.90;;;;;;5111184;28;20319;-70
2021/11/10 06:41:32;;;;;;;4.70;2.72;;;7.80;99.90;;;;;;5098512;28;20209;-70
2021/11/10 06:44:03;;;;;;;4.10;2.72;;;7.80;99.90;;;;;;5098909;28;20688;-69
2021/11/10 06:46:34;;;;;;;6.18;2.65;;;7.80;99.90;;;;;;5105163;28;20217;-69
2021/11/10 06:49:04;;;;;;;8.20;3.97;;;7.80;99.90;;;;;;5090111;28;20212;-69
2021/11/10 06:51:35;;;;;;;6.05;3.58;;;7.90;99.90;;;;;;5088930;28;20213;-69
2021/11/10 06:54:08;;;;;;;6.60;4.10;;;8.00;99.90;;;;;;5090560;28;20634;-68
2021/11/10 06:56:41;;;;;;;6.28;2.90;;;8.00;99.90;;;;;;5087512;28;20208;-69
2021/11/10 06:59:19;;;;;;;5.03;3.05;;;8.10;99.90;;;;;;5099090;28;20365;-69
2021/11/10 07:01:50;;;;;;;5.38;2.90;;;8.20;99.90;;;;;;5098579;28;20208;-69
2021/11/10 07:04:21;;;;;;;5.28;2.47;;;8.20;99.90;;;;;;5089818;28;20239;-69
2021/11/10 07:06:52;;;;;;;4.28;2.03;;;8.30;99.90;;;;;;5094590;28;20204;-69
2021/11/10 07:09:24;;;;;;;4.57;2.30;;;8.20;99.90;;;;;;5090367;28;20217;-69
2021/11/10 07:11:55;;;;;;;3.80;2.47;;;8.30;99.90;;;;;;5095926;28;20218;-69
2021/11/10 07:14:27;;;;;;;4.32;2.50;;;8.40;99.90;;;;;;5107095;28;20310;-69
2021/11/10 07:16:57;;;;;;;3.35;2.08;;;8.40;99.90;;;;;;5098310;28;20213;-69
2021/11/10 07:19:28;;;;;;;4.90;2.30;;;8.40;99.90;;;;;;5092382;28;20207;-69
2021/11/10 07:21:59;;;;;;;8.50;2.00;;;8.40;99.90;;;;;;5102688;28;20216;-69
2021/11/10 07:24:32;;;;;;;7.82;2.10;;;8.40;99.90;;;;;;5100762;28;20318;-69
2021/11/10 07:27:03;;;;;;;7.35;2.67;;;8.50;99.90;;;;;;5102102;28;20375;-69
2021/11/10 07:29:34;;;;;;;5.10;2.30;;;8.50;99.90;;;;;;5090508;28;20219;-69
2021/11/10 07:32:06;;;;;;;3.38;2.10;;;8.50;99.90;;;;;;5098869;28;20211;-68
2021/11/10 07:34:37;;;;;;;3.88;2.13;;;8.60;99.90;;;;;;5101341;28;20223;-69
2021/11/10 07:37:08;;;;;;;3.22;1.77;;;8.60;99.90;;;;;;5099228;28;20214;-69
2021/11/10 07:39:43;;;;;;;6.45;2.50;;;8.70;99.90;;;;;;5104606;28;20209;-69
2021/11/10 07:42:14;;;;;;;3.97;2.30;;;8.70;99.90;;;;;;5104237;28;20207;-69
2021/11/10 07:44:45;;;;;;;2.70;1.70;;;8.70;99.90;;;;;;5106704;27;20360;-69
2021/11/10 07:47:17;;;;;;;4.53;2.00;;;8.60;99.90;;;;;;5115914;27;20208;-69
2021/11/10 07:49:48;;;;;;;4.00;2.40;;;8.60;99.90;;;;;;5098896;28;20553;-69
2021/11/10 07:52:19;;;;;;;4.72;2.38;;;8.70;99.90;;;;;;5095674;28;20208;-69
2021/11/10 07:54:56;;;;;;;5.38;2.20;;;8.70;99.90;;;;;;5109034;28;20211;-69
2021/11/10 07:57:27;;;;;;;3.45;1.63;;;8.70;99.90;;;;;;5092010;28;20212;-68
2021/11/10 07:59:58;;;;;;;6.78;2.58;;;8.60;99.90;;;;;;5104983;28;20227;-68
2021/11/10 08:02:29;;;;;;;3.53;2.03;;;8.60;99.90;;;;;;5109217;27;20232;-69
2021/11/10 08:05:00;;;;;;;3.40;1.83;;;8.60;99.90;;;;;;5096795;28;20688;-68
2021/11/10 08:07:31;;;;;;;8.05;2.78;;;8.50;99.90;;;;;;5105164;28;20215;-68
2021/11/10 08:10:05;;;;;;;5.93;2.38;;;8.40;99.90;;;;;;5106845;28;20584;-68
2021/11/10 08:12:36;;;;;;;4.95;2.22;;;8.50;99.90;;;;;;5101843;28;20234;-69
2021/11/10 08:15:09;;;;;;;4.35;1.92;;;8.50;99.90;;;;;;5104944;28;20312;-68
2021/11/10 08:17:40;;;;;;;5.57;2.80;;;8.40;99.90;;;;;;5090909;28;20239;-68
2021/11/10 08:20:13;;;;;;;5.57;1.75;;;8.40;99.90;;;;;;5092073;28;20219;-68
2021/11/10 08:22:44;;;;;;;4.32;1.70;;;8.40;99.90;;;;;;5093870;28;20212;-68
2021/11/10 08:25:18;;;;;;;4.28;2.17;;;8.40;99.90;;;;;;5094740;28;20239;-68
2021/11/10 08:27:49;;;;;;;4.65;2.30;;;8.50;99.90;;;;;;5092096;28;20673;-68
2021/11/10 08:30:20;;;;;;;4.28;1.92;;;8.50;99.90;;;;;;5099217;28;20215;-68
2021/11/10 08:32:53;;;;;;;3.55;1.80;;;8.60;99.90;;;;;;5103863;28;20207;-69
2021/11/10 08:35:24;;;;;;;2.88;1.60;;;8.60;99.90;;;;;;5099635;28;20208;-69
2021/11/10 08:37:55;;;;;;;2.80;2.08;;;8.50;99.90;;;;;;5093591;28;20216;-69
2021/11/10 08:40:28;;;;;;;7.63;3.55;;;8.60;99.90;;;;;;5099221;28;20323;-69
2021/11/10 08:42:59;;;;;;;6.25;2.08;;;8.60;99.90;;;;;;5091624;28;20228;-69
2021/11/10 08:45:33;;;;;;;5.55;1.65;;;8.60;99.90;;;;;;5093367;28;20324;-69
2021/11/10 08:48:06;;;;;;;4.15;2.33;;;8.60;99.90;;;;;;5091039;28;20273;-69
2021/11/10 08:50:40;;;;;;;7.75;2.70;;;8.50;99.90;;;;;;5090282;28;20216;-69
2021/11/10 08:53:11;;;;;;;5.30;2.38;;;8.50;99.90;;;;;;5103970;28;20219;-69
2021/11/10 08:55:44;;;;;;;4.72;2.20;;;8.60;99.90;;;;;;5107626;28;20239;-69
2021/11/10 08:58:15;;;;;;;9.23;2.20;;;8.60;99.90;;;;;;5101867;28;20309;-69
2021/11/10 09:00:47;;;;;;;3.35;1.90;;;8.50;99.90;;;;;;5092044;28;20216;-69
2021/11/10 09:03:18;;;;;;;3.53;2.10;;;8.50;99.90;;;;;;5111186;28;20238;-69
2021/11/10 09:05:49;;;;;;;9.02;2.33;;;8.50;99.90;;;;;;5104799;28;20220;-69
2021/11/10 09:08:21;;;;;;;3.05;2.08;;;8.40;99.90;;;;;;5098879;28;20223;-70
2021/11/10 09:10:53;;;;;;;8.88;2.10;;;8.40;99.90;;;;;;5111945;28;20215;-69
2021/11/10 09:13:24;;;;;;;2.70;1.85;;;8.40;99.90;;;;;;5109919;28;20248;-69
2021/11/10 09:15:55;;;;;;;4.53;2.15;;;8.50;99.90;;;;;;5109423;28;20207;-69
2021/11/10 09:18:27;;;;;;;4.75;2.40;;;8.50;99.90;;;;;;5108984;28;20243;-69
2021/11/10 09:20:58;;;;;;;3.83;3.00;;;8.40;99.90;;;;;;5103498;28;20212;-69
2021/11/10 09:23:28;;;;;;;3.88;2.60;;;8.30;99.90;;;;;;5109100;28;20229;-69
2021/11/10 09:26:01;;;;;;;4.85;3.35;;;8.30;99.90;;;;;;5101545;28;20224;-69
2021/11/10 09:28:32;;;;;;;10.63;4.45;;;8.30;99.90;;;;;;5101883;28;20577;-69
2021/11/10 09:31:03;;;;;;;11.23;5.05;;;8.30;99.90;;;;;;5091008;28;20219;-69
2021/11/10 09:33:39;;;;;;;10.80;4.07;;;8.20;99.90;;;;;;5091783;28;20208;-69
2021/11/10 09:36:11;;;;;;;12.75;5.82;;;8.20;99.90;;;;;;5091529;28;20216;-69
2021/11/10 09:38:42;;;;;;;16.35;7.05;;;8.10;99.90;;;;;;5108200;28;20215;-69
2021/11/10 09:41:15;;;;;;;9.35;6.40;;;8.10;99.90;;;;;;5092079;28;20267;-69
2021/11/10 09:43:46;;;;;;;10.93;6.32;;;8.10;99.90;;;;;;5096334;28;20645;-70
2021/11/10 09:46:26;;;;;;;9.23;4.80;;;8.10;99.90;;;;;;5100844;27;20685;-70
2021/11/10 09:48:58;;;;;;;4.80;2.75;;;8.00;99.90;;;;;;5089663;28;20306;-70
2021/11/10 09:51:28;;;;;;;7.93;3.80;;;8.00;99.90;;;;;;5093803;28;20214;-73
2021/11/10 09:54:01;;;;;;;7.90;3.22;;;8.00;99.90;;;;;;5110053;28;20238;-70
2021/11/10 09:56:33;;;;;;;6.25;2.38;;;8.00;99.90;;;;;;5093380;28;20205;-69
2021/11/10 09:59:05;;;;;;;5.03;2.35;;;7.90;99.90;;;;;;5101441;28;20218;-68
2021/11/10 10:01:37;;;;;;;2.85;2.15;;;7.80;99.90;;;;;;5097450;28;20204;-70
2021/11/10 10:04:11;;;;;;;3.70;2.30;;;7.80;99.90;;;;;;5098491;28;20599;-69
2021/11/10 10:06:43;;;;;;;3.85;2.00;;;7.70;99.90;;;;;;5098256;28;20224;-71
2021/11/10 10:09:14;;;;;;;6.28;2.33;;;7.60;99.90;;;;;;5094264;28;20685;-70
2021/11/10 10:11:47;;;;;;;10.32;2.80;;;7.50;99.90;;;;;;5106094;28;20219;-75
2021/11/10 10:14:18;;;;;;;3.30;2.30;;;7.50;99.90;;;;;;5100840;28;20556;-69
2021/11/10 10:16:49;;;;;;;191.25;32.10;;;7.30;99.90;;;;;;5097489;27;20209;-69
2021/11/10 10:19:20;;;;;;;283.60;47.50;;;7.30;99.90;;;;;;5101299;28;20212;-69
2021/11/10 10:22:01;;;;;;;5.53;2.53;;;7.40;99.90;;;;;;5099545;28;20208;-69
2021/11/10 10:24:47;;;;;;;4.20;2.50;;;7.30;99.90;;;;;;5100686;28;20216;-72
2021/11/10 10:27:29;;;;;;;5.50;2.85;;;7.30;99.90;;;;;;5107863;28;20299;-70
2021/11/10 10:30:26;;;;;;;5.25;2.70;;;7.20;99.90;;;;;;5096558;28;20212;-70
2021/11/10 10:32:58;;;;;;;10.15;3.47;;;7.20;99.90;;;;;;5104114;28;20318;-69
2021/11/10 10:35:35;;;;;;;12.48;7.68;;;7.10;99.90;;;;;;5106393;28;20551;-69
2021/11/10 10:38:08;;;;;;;9.05;6.50;;;7.10;99.90;;;;;;5111769;28;20219;-70
2021/11/10 10:40:41;;;;;;;12.73;8.20;;;7.20;99.90;;;;;;5106220;28;20639;-71
2021/11/10 10:43:14;;;;;;;6.55;3.20;;;7.20;99.90;;;;;;5105318;28;20222;-68
2021/11/10 10:45:48;;;;;;;4.47;3.42;;;7.20;99.90;;;;;;5106935;28;20204;-71
2021/11/10 10:48:21;;;;;;;5.03;3.72;;;7.30;99.90;;;;;;5106926;28;20212;-68
2021/11/10 10:50:55;;;;;;;6.95;3.55;;;7.20;99.90;;;;;;5094372;28;20227;-69
2021/11/10 10:53:38;;;;;;;4.32;3.63;;;7.30;99.90;;;;;;5101752;28;20214;-68
2021/11/10 10:56:23;;;;;;;7.30;4.03;;;7.30;99.90;;;;;;5094541;28;20220;-72
2021/11/10 10:59:00;;;;;;;5.18;3.70;;;7.40;99.90;;;;;;5096759;28;20212;-70
2021/11/10 11:01:32;;;;;;;7.80;3.40;;;7.40;99.90;;;;;;5097723;28;20227;-69
2021/11/10 11:04:06;;;;;;;6.68;2.90;;;7.30;99.90;;;;;;5103473;28;20235;-68
2021/11/10 11:06:40;;;;;;;3.22;2.63;;;7.30;99.90;;;;;;5098086;28;20620;-68
2021/11/10 11:09:19;;;;;;;7.97;3.90;;;7.30;99.90;;;;;;5099975;28;20211;-75
2021/11/10 11:11:58;;;;;;;5.47;3.10;;;7.40;99.90;;;;;;5100261;28;20220;-69
2021/11/10 11:14:48;;;;;;;4.50;3.13;;;7.40;99.90;;;;;;5110201;28;20218;-69
2021/11/10 11:17:25;;;;;;;3.25;2.55;;;7.40;99.90;;;;;;5100250;28;20242;-69
2021/11/10 11:20:00;;;;;;;6.18;3.03;;;7.50;99.90;;;;;;5101822;28;20683;-69
2021/11/10 11:22:32;;;;;;;2.42;2.20;;;7.50;99.90;;;;;;5110856;28;20668;-69
2021/11/10 11:25:12;;;;;;;3.67;2.63;;;7.40;99.90;;;;;;5109085;28;20222;-70
2021/11/10 11:27:53;;;;;;;7.53;3.20;;;7.50;99.90;;;;;;5088600;28;20220;-74
2021/11/10 11:30:26;;;;;;;4.85;2.95;;;7.40;99.90;;;;;;5096992;28;20215;-73
2021/11/10 11:32:58;;;;;;;4.30;2.60;;;7.40;99.90;;;;;;5098087;28;20606;-71
2021/11/10 11:35:32;;;;;;;4.50;2.63;;;7.40;99.90;;;;;;5100705;28;20561;-72
2021/11/10 11:38:07;;;;;;;5.80;3.50;;;7.40;99.90;;;;;;5107168;28;20291;-73
2021/11/10 11:40:38;;;;;;;3.50;2.88;;;7.30;99.90;;;;;;5109017;28;20211;-73
2021/11/10 11:43:11;;;;;;;5.97;2.40;;;7.30;99.90;;;;;;5098681;28;20634;-70
2021/11/10 11:45:46;;;;;;;4.63;3.05;;;7.30;99.90;;;;;;5097443;28;20720;-68
2021/11/10 11:48:18;;;;;;;4.22;3.35;;;7.20;99.90;;;;;;5098661;28;20227;-67
2021/11/10 11:50:49;;;;;;;150.32;24.08;;;7.20;99.90;;;;;;5090445;28;20212;-68
2021/11/10 11:53:21;;;;;;;1389.45;214.27;;;7.20;99.90;;;;;;5090038;28;20693;-68
2021/11/10 11:55:55;;;;;;;6.10;3.05;;;7.40;99.90;;;;;;5088520;28;20219;-69
2021/11/10 11:58:28;;;;;;;3.90;3.17;;;7.50;99.90;;;;;;5091396;28;20230;-71
2021/11/10 12:01:04;;;;;;;5.68;3.00;;;7.40;99.90;;;;;;5108797;28;20235;-73
2021/11/10 12:03:38;;;;;;;10.43;3.05;;;7.30;99.90;;;;;;5104731;28;20232;-70
2021/11/10 12:06:17;;;;;;;5.95;2.90;;;7.40;99.90;;;;;;5089102;28;20220;-72
2021/11/10 12:08:49;;;;;;;5.15;2.70;;;7.40;99.90;;;;;;5103971;28;20216;-69
2021/11/10 12:11:35;;;;;;;8.10;3.67;;;7.40;99.90;;;;;;5090490;28;20224;-73
2021/11/10 12:14:12;;;;;;;5.60;2.80;;;7.30;99.90;;;;;;5101193;28;20212;-70
2021/11/10 12:16:56;;;;;;;5.90;3.25;;;7.40;99.90;;;;;;5093761;28;20207;-71
2021/11/10 12:19:31;;;;;;;7.68;2.80;;;7.50;99.90;;;;;;5094155;28;20554;-76
2021/11/10 12:22:08;;;;;;;5.13;2.70;;;7.50;99.90;;;;;;5110536;28;20699;-69
2021/11/10 12:24:48;;;;;;;4.95;3.50;;;7.50;99.90;;;;;;5096984;28;20286;-70
2021/11/10 12:27:37;;;;;;;5.47;3.47;;;7.40;99.90;;;;;;5091713;28;20219;-70
2021/11/10 12:30:18;;;;;;;3.80;2.80;;;7.50;99.90;;;;;;5099550;28;20207;-69
2021/11/10 12:32:54;;;;;;;5.80;3.60;;;7.50;99.90;;;;;;5104613;28;20589;-69
2021/11/10 12:35:37;;;;;;;3.90;3.45;;;7.60;99.90;;;;;;5107974;28;20213;-71
2021/11/10 12:38:16;;;;;;;8.13;2.90;;;7.60;99.90;;;;;;5104398;28;20211;-69
2021/11/10 12:40:53;;;;;;;6.97;4.13;;;7.60;99.90;;;;;;5099868;28;20674;-69
2021/11/10 12:43:25;;;;;;;4.47;2.50;;;7.60;99.90;;;;;;5106247;28;20308;-69
2021/11/10 12:46:05;;;;;;;3.78;2.90;;;7.70;99.90;;;;;;5113803;28;20211;-68
2021/11/10 12:48:40;;;;;;;5.70;3.20;;;7.80;99.90;;;;;;5103446;28;20398;-69
2021/11/10 12:51:22;;;;;;;8.82;3.47;;;7.80;99.90;;;;;;5106711;28;20211;-69
2021/11/10 12:53:55;;;;;;;3.65;3.35;;;7.80;99.90;;;;;;5094012;28;20221;-71
2021/11/10 12:56:47;;;;;;;6.28;2.85;;;7.80;99.90;;;;;;5100189;28;20223;-73
2021/11/10 12:59:27;;;;;;;5.93;2.60;;;7.80;99.90;;;;;;5103658;28;20212;-73
2021/11/10 13:01:59;;;;;;;5.70;3.05;;;7.80;99.90;;;;;;5094604;28;20212;-71
2021/11/10 13:04:34;;;;;;;5.32;3.30;;;7.80;99.90;;;;;;5104212;28;20603;-70
2021/11/10 13:07:16;;;;;;;7.85;3.67;;;7.90;99.90;;;;;;5093536;28;20208;-73
2021/11/10 13:09:49;;;;;;;5.85;2.80;;;8.00;99.90;;;;;;5107971;28;20211;-73
2021/11/10 13:12:21;;;;;;;11.85;3.70;;;8.00;99.90;;;;;;5100996;28;20302;-70
2021/11/10 13:14:54;;;;;;;4.65;2.72;;;8.00;99.90;;;;;;5104828;28;20218;-69
2021/11/10 13:17:29;;;;;;;5.85;3.40;;;7.90;99.90;;;;;;5106330;28;20204;-68
2021/11/10 13:20:05;;;;;;;6.35;3.70;;;7.90;99.90;;;;;;5090954;28;20228;-74
2021/11/10 13:22:38;;;;;;;4.35;3.10;;;7.80;99.90;;;;;;5105450;28;20223;-70
2021/11/10 13:25:11;;;;;;;5.28;2.80;;;7.80;99.90;;;;;;5102018;28;20216;-70